createdAt,value
2019-02-28T00:00:12.811Z,69.78
2019-02-28T00:05:14.390Z,70.43
2019-02-28T00:10:01.607Z,70.43
2019-02-28T00:15:01.831Z,71.86
2019-02-28T00:20:03.991Z,71.95
2019-02-28T00:25:14.571Z,71.87
2019-02-28T00:30:12.340Z,71.53
2019-02-28T00:35:20.403Z,71.39
2019-02-28T00:40:17.622Z,71.4
2019-02-28T00:45:13.552Z,71.49
2019-02-28T00:50:16.050Z,71.41
2019-02-28T00:55:14.629Z,71.4
2019-02-28T01:00:13.332Z,71.72
2019-02-28T01:05:13.271Z,71.53
2019-02-28T01:10:13.610Z,71.72
2019-02-28T01:15:15.303Z,71.64
2019-02-28T01:20:16.817Z,71.67
2019-02-28T01:25:12.069Z,72.3
2019-02-28T01:30:12.956Z,72.37
2019-02-28T01:35:14.512Z,72.72
2019-02-28T01:40:14.864Z,72.37
2019-02-28T01:45:19.054Z,72.35
2019-02-28T01:50:17.621Z,72.32
2019-02-28T01:55:16.841Z,72.61
2019-02-28T02:00:18.131Z,72.7
2019-02-28T02:05:16.812Z,72.82
2019-02-28T02:10:09.415Z,72.96
2019-02-28T02:15:08.450Z,72.95
2019-02-28T02:20:14.008Z,73.17
2019-02-28T02:25:17.416Z,73.53
2019-02-28T02:30:16.054Z,74.04
2019-02-28T02:35:15.767Z,74.05
2019-02-28T02:40:15.697Z,74.52
2019-02-28T02:45:13.590Z,74.96
2019-02-28T02:50:08.634Z,75.6
2019-02-28T02:55:11.484Z,76.08
2019-02-28T03:00:15.502Z,76.51
2019-02-28T03:05:10.448Z,77.28
2019-02-28T03:10:17.217Z,77.72
2019-02-28T03:15:11.779Z,78.78
2019-02-28T03:20:14.166Z,79.41
2019-02-28T03:25:13.830Z,80.39
2019-02-28T03:30:25.690Z,80.85
2019-02-28T03:35:20.557Z,81.29
2019-02-28T03:40:21.572Z,81.7
2019-02-28T03:45:13.557Z,82.12
2019-02-28T03:50:21.847Z,82.7
2019-02-28T03:55:20.169Z,83.24
2019-02-28T04:00:15.161Z,83.73
2019-02-28T04:05:26.393Z,84.08
2019-02-28T04:10:07.568Z,83.91
2019-02-28T04:15:11.143Z,83.44
2019-02-28T04:20:07.912Z,83.34
2019-02-28T04:25:09.994Z,83.35
2019-02-28T04:30:11.780Z,83.64
2019-02-28T04:35:13.404Z,83.82
2019-02-28T04:40:17.164Z,84.4
2019-02-28T04:45:14.424Z,84.53
2019-02-28T04:50:18.735Z,84.14
2019-02-28T04:55:14.411Z,83.95
2019-02-28T05:00:14.570Z,84.08
2019-02-28T05:05:20.355Z,84.22
2019-02-28T05:10:13.641Z,84.75
2019-02-28T05:15:13.360Z,85.54
2019-02-28T05:20:18.647Z,85.79
2019-02-28T05:25:19.678Z,85.63
2019-02-28T05:30:19.231Z,85.46
2019-02-28T05:35:14.454Z,85.34
2019-02-28T05:40:13.878Z,85.41
2019-02-28T05:45:14.538Z,85.31
2019-02-28T05:50:24.399Z,85.34
2019-02-28T05:55:12.804Z,85.79
2019-02-28T06:00:06.938Z,86.14
2019-02-28T06:05:08.353Z,86.37
2019-02-28T06:10:05.697Z,86.49
2019-02-28T06:15:09.729Z,86.4
2019-02-28T06:20:16.168Z,86.1
2019-02-28T06:25:21.972Z,85.66
2019-02-28T06:30:13.966Z,85.16
2019-02-28T06:35:17.182Z,84.09
2019-02-28T06:40:13.874Z,83.66
2019-02-28T06:45:17.360Z,83.17
2019-02-28T06:50:16.820Z,82.76
2019-02-28T06:55:21.777Z,82.55
2019-02-28T07:00:13.325Z,82.15
2019-02-28T07:05:15.827Z,81.99
2019-02-28T07:10:19.951Z,82.12
2019-02-28T07:15:13.016Z,81.99
2019-02-28T07:20:17.540Z,82.27
2019-02-28T07:25:20.122Z,81.25
2019-02-28T07:30:17.784Z,80.66
2019-02-28T07:35:13.235Z,80.07
2019-02-28T07:40:15.349Z,79.19
2019-02-28T07:45:11.975Z,77.93
2019-02-28T07:50:13.773Z,76.68
2019-02-28T07:55:14.973Z,75.57
2019-02-28T08:00:18.082Z,75.36
2019-02-28T08:05:20.158Z,74.56
2019-02-28T08:10:12.695Z,73.59
2019-02-28T08:15:14.666Z,73.13
2019-02-28T08:20:11.321Z,70.64
2019-02-28T08:25:14.465Z,70.34
2019-02-28T08:30:12.907Z,69.81
2019-02-28T08:35:17.699Z,68.85
2019-02-28T08:40:16.326Z,68.72
2019-02-28T08:45:12.773Z,68.21
2019-02-28T08:50:18.869Z,68.02
2019-02-28T08:55:15.770Z,68.43
2019-02-28T09:00:15.243Z,66.58
2019-02-28T09:05:17.911Z,66.57
2019-02-28T09:10:11.932Z,66.65
2019-02-28T09:15:04.046Z,67.18
2019-02-28T09:20:16.966Z,66.74
2019-02-28T09:25:21.088Z,65.04
2019-02-28T09:30:12.556Z,65.47
2019-02-28T09:35:18.712Z,65.77
2019-02-28T09:40:14.301Z,65.08
2019-02-28T09:45:12.972Z,66.13
2019-02-28T09:50:12.377Z,65.63
2019-02-28T09:55:11.276Z,64.63
2019-02-28T10:00:16.699Z,64.53
2019-02-28T10:05:13.486Z,64.24
2019-02-28T10:20:28.119Z,63.95
2019-02-28T11:20:21.599Z,61.16
2019-02-28T11:25:16.123Z,58.84
2019-02-28T11:30:22.522Z,59.1
2019-02-28T11:35:29.976Z,60.18
2019-02-28T11:40:18.052Z,59.52
2019-02-28T11:45:18.488Z,61.06
2019-02-28T11:50:12.094Z,61.17
2019-02-28T11:55:28.516Z,61.36
2019-02-28T12:00:17.210Z,60.52
2019-02-28T12:05:20.714Z,60.73
2019-02-28T12:10:18.481Z,59.79
2019-02-28T12:15:23.262Z,60.11
2019-02-28T12:20:26.374Z,61.54
2019-02-28T12:25:15.357Z,62.11
2019-02-28T12:30:12.981Z,62.3
2019-02-28T12:35:23.018Z,62.88
2019-02-28T12:40:19.593Z,63.2
2019-02-28T12:45:12.060Z,63.51
2019-02-28T12:50:13.697Z,63.07
2019-02-28T12:55:09.227Z,64.64
2019-02-28T13:00:07.209Z,65.42
2019-02-28T13:05:17.366Z,66.62
2019-02-28T13:10:10.280Z,67.7
2019-02-28T13:15:04.932Z,68.19
2019-02-28T13:20:12.604Z,69.17
2019-02-28T13:25:08.271Z,69.72
2019-02-28T13:30:10.307Z,70.63
2019-02-28T13:35:12.516Z,70.99
2019-02-28T13:40:12.234Z,72.65
2019-02-28T13:45:02.695Z,74.49
2019-02-28T13:50:08.485Z,75.58
2019-02-28T13:55:06.317Z,76.29
2019-02-28T14:00:09.009Z,76.32
2019-02-28T14:05:07.189Z,76.03
2019-02-28T14:10:06.996Z,77.55
2019-02-28T14:15:02.555Z,77.18
2019-02-28T14:20:07.093Z,77.52
2019-02-28T14:25:09.076Z,78.64
2019-02-28T14:30:02.701Z,78.19
2019-02-28T14:35:05.877Z,77.38
2019-02-28T14:40:05.151Z,76.2
2019-02-28T14:45:07.099Z,74.94
2019-02-28T14:50:04.628Z,74.93
2019-02-28T14:55:05.750Z,74.07
2019-02-28T15:00:07.359Z,73.29
2019-02-28T15:05:08.114Z,72.55
2019-02-28T15:10:07.887Z,72.24
2019-02-28T15:15:04.750Z,72.72
2019-02-28T15:20:07.687Z,72.98
2019-02-28T15:25:06.558Z,73.46
2019-02-28T15:30:03.868Z,73.34
2019-02-28T15:35:07.762Z,73.83
2019-02-28T15:40:06.181Z,73.98
2019-02-28T15:45:05.686Z,74.11
2019-02-28T15:50:06.295Z,74.36
2019-02-28T15:55:07.374Z,74.59
2019-02-28T16:00:04.266Z,75.13
2019-02-28T16:05:11.579Z,76.34
2019-02-28T16:10:07.604Z,78.5
2019-02-28T16:15:05.475Z,79.71
2019-02-28T16:20:07.669Z,79.63
2019-02-28T16:25:06.786Z,79.53
2019-02-28T16:30:04.368Z,80
2019-02-28T16:35:05.959Z,79.3
2019-02-28T16:40:06.543Z,79.09
2019-02-28T16:45:09.948Z,78.9
2019-02-28T16:50:06.289Z,78.97
2019-02-28T16:55:06.922Z,78.93
2019-02-28T17:00:07.542Z,79.05
2019-02-28T17:05:07.017Z,79.16
2019-02-28T17:10:07.398Z,79.13
2019-02-28T17:15:04.173Z,78.42
2019-02-28T17:20:08.985Z,78.69
2019-02-28T17:25:08.686Z,78.63
2019-02-28T17:30:04.242Z,78.62
2019-02-28T17:35:06.648Z,78.74
2019-02-28T17:40:09.549Z,78.35
2019-02-28T17:45:04.276Z,77.92
2019-02-28T17:50:08.733Z,78.05
2019-02-28T17:55:09.548Z,78.21
2019-02-28T18:00:05.050Z,78.25
2019-02-28T18:05:09.341Z,77.68
2019-02-28T18:10:07.255Z,77.77
2019-02-28T18:15:08.826Z,77.92
2019-02-28T18:20:08.968Z,78.05
2019-02-28T18:25:07.525Z,78.19
2019-02-28T18:30:05.341Z,77.98
2019-02-28T18:35:06.959Z,77.99
2019-02-28T18:40:07.169Z,78.19
2019-02-28T18:45:03.820Z,78.19
2019-02-28T18:50:07.819Z,78.7
2019-02-28T18:55:09.558Z,78.85
2019-02-28T19:00:04.251Z,79.45
2019-02-28T19:05:07.616Z,80.21
2019-02-28T19:10:06.680Z,81.08
2019-02-28T19:15:04.289Z,82.02
2019-02-28T19:20:07.325Z,83.69
2019-02-28T19:25:08.674Z,84.09
2019-02-28T19:30:05.971Z,83.99
2019-02-28T19:35:08.795Z,84.09
2019-02-28T19:40:07.863Z,83.38
2019-02-28T19:45:03.307Z,84.34
2019-02-28T19:50:08.582Z,86.92
2019-02-28T19:55:07.733Z,87.88
2019-02-28T20:00:03.289Z,88.88
2019-02-28T20:05:07.582Z,89.01
2019-02-28T20:10:06.206Z,88.86
2019-02-28T20:15:07.216Z,87.62
2019-02-28T20:20:07.097Z,88.39
2019-02-28T20:25:07.892Z,87.74
2019-02-28T20:30:03.327Z,88.18
2019-02-28T20:35:07.367Z,88.23
2019-02-28T20:40:06.176Z,88.46
2019-02-28T20:45:02.668Z,87.53
2019-02-28T20:50:06.262Z,87.34
2019-02-28T20:55:08.130Z,87.21
2019-02-28T21:00:03.339Z,86.93
2019-02-28T21:05:06.507Z,86.88
2019-02-28T21:10:08.215Z,87.01
2019-02-28T21:15:02.843Z,87.33
2019-02-28T21:20:05.815Z,87.01
2019-02-28T21:25:06.109Z,88.62
2019-02-28T21:30:02.635Z,89.29
2019-02-28T21:35:05.694Z,90.87
2019-02-28T21:40:05.692Z,91.91
2019-02-28T21:45:03.178Z,92.29
2019-02-28T21:50:04.858Z,92.92
2019-02-28T21:55:07.896Z,92.47
2019-02-28T22:00:03.910Z,91.99
2019-02-28T22:05:05.980Z,91.81
2019-02-28T22:10:08.833Z,91.27
2019-02-28T22:15:04.408Z,89.79
2019-02-28T22:20:06.878Z,89.55
2019-02-28T22:25:10.158Z,89.66
2019-02-28T22:30:03.807Z,89.62
2019-02-28T22:35:07.123Z,89.15
2019-02-28T22:40:09.697Z,87.59
2019-02-28T22:45:04.160Z,87.59
2019-02-28T22:50:07.266Z,87.05
2019-02-28T22:55:09.720Z,86.4
2019-02-28T23:00:04.297Z,85.95
2019-02-28T23:05:09.695Z,86.4
2019-02-28T23:10:08.977Z,86.47
2019-02-28T23:15:03.694Z,86.81
2019-02-28T23:20:09.427Z,86.54
2019-02-28T23:25:08.130Z,86.11
2019-02-28T23:30:03.849Z,86.82
2019-02-28T23:35:08.629Z,87.01
2019-02-28T23:40:07.906Z,87.01
2019-02-28T23:45:04.361Z,86.62
2019-02-28T23:50:07.533Z,86.46
2019-02-28T23:55:08.117Z,86.4
